Asert, OR

11:36 PM PDT on June 02, 2015 (GMT -0700)
Portland-Troutdale | | Change Station
CLOSE
Current Station
Airport
Location: Portland Troutdale,
Elevation: 36 ft
Nearby Weather Stations

Elev 36 ft 45.55 °N, 122.41 °W | Updated 43 minutes ago

Overcast
Overcast
56 °F
Feels Like 56 °F
N
5
Wind Variable Wind from East

Today
High -- | Low -- °F
--% Chance of Precip.
Yesterday
High -- | Low -- °F
Precip. -- in
5:23 AM 8:51 PM
Full, 100% visible
Pressure 30.10 in
Visibility 10.0 miles
Clouds Few 4500 ft
Mostly Cloudy 5500 ft
Overcast 12000 ft
Dew Point 53 °F
Humidity 90%
Rainfall 0.07 in
Snow Depth Not available.
UV 0 out of 12
Pollen 4.00 out of 12
Air Quality Not available.
Flu Activity Sporadic
METAR KTTD 030553Z AUTO 08004KT 10SM FEW045 BKN055 OVC120 13/12 A3010 RMK AO2 SLP192 60000 T01330117 10161 20133 50003

More Conditions Fewer Conditions

Pressure 30.10 in
Visibility 10.0 miles
Clouds Few 4500 ft
Mostly Cloudy 5500 ft
Overcast 12000 ft
Dew Point 53 °F
Humidity 90%
Rainfall 0.07 in
Snow Depth Not available.
UV 0 out of 12
Pollen 4.00 out of 12
Air Quality Not available.
Flu Activity Sporadic
METAR KTTD 030553Z AUTO 08004KT 10SM FEW045 BKN055 OVC120 13/12 A3010 RMK AO2 SLP192 60000 T01330117 10161 20133 50003

More Conditions Fewer Conditions

10-Day Weather Forecast

×

Almanac

Astronomy

Jun. 02, 2015 Rise Set
Actual Time
Civil Twilight
Nautical Twilight
Astronomical Twilight
Moon
Length of Visible Light
Length of Day
Tomorrow will be .
, % of the Moon is Illuminated

Today's Extremes

State Highs State Lows

Community

WunderPhotos

Upload Photos

1,826,185 photos uploaded!

WunderBlogs® & News

Nearby

Air Quality

  Air Quality AQ Index Pollutant
Not available.

Snow Depth

Station Depth Elevation

Earthquake Activity

City Distance Mag. Time & Date
Minimum magnitude displayed is 2.5.

Coastal Water Temperatures

Place Temperature

Stations

Nearby Weather Stations

Station Location Temp. Windchill Dew Point Humidity Wind Precip. Elev Updated Type